Alta Loma, California
Current Conditions -  °F | °C
As of 3:53 AM on Thursday 18 Dec 2014 (Local Time) from KONT Reporting Station
Broken Clouds Broken Clouds  
Wind Chill: 50°   Ceiling: 9500
Heat Index: 50°   Visibility: 10mi
Dew Point: 44°   Wind: 0mph
Humidity: 80%   Direction: NA
Pressure: 30.12"   Gusts: NA
Location:  34.12°N, 117.6°W
Report Text: KONT 181153Z 00000KT 10SM FEW038 BKN095 10/07 A3012 RMK AO2 SLP198 70042 T01000067 10122 20089 51004
Loading
Personal Weather Stations






























Interactive Weather Map New forecast layout! Learn more

10-Day Weather Forecast

Advertisements
Track Severe Weather on mobile